Time;durP1;ratioP1;P1;durP2;ratioP2;P2;SDS_P1;SDS_P2;PMS_P1;PMS_P2;Temp;Humidity;BMP_temperature;BMP_pressure;BME280_temperature;BME280_humidity;BME280_pressure;Samples;Min_cycle;Max_cycle;Signal;HPM_P1;HPM_P2
2023/03/02 00:02:16;;;;;;;;;;;;;;;27.40;24.69;101438.84;5059213;28;1972;-15
2023/03/02 00:04:46;;;;;;;;;;;;;;;28.05;23.93;101444.38;5051355;28;1084;-15
2023/03/02 00:07:13;;;;;;;;;;;;;;;27.65;23.79;101444.22;5053976;28;1037;-14
2023/03/02 00:09:39;;;;;;;;;;;;;;;27.55;24.04;101438.16;5059036;28;1043;-15
2023/03/02 00:12:05;;;;;;;;;;;;;;;26.98;25.06;101440.59;5058736;28;1206;-15
2023/03/02 00:14:30;;;;;;;;;;;;;;;26.82;25.43;101436.84;5059049;28;1024;-14
2023/03/02 00:16:56;;;;;;;;;;;;;;;26.89;25.50;101429.78;5058562;28;1134;-14
2023/03/02 00:19:22;;;;;;;;;;;;;;;27.42;24.65;101420.59;5057489;28;1088;-15
2023/03/02 00:21:47;;;;;;;;;;;;;;;27.58;24.77;101424.28;5058426;28;1969;-14
2023/03/02 00:24:14;;;;;;;;;;;;;;;27.43;24.80;101426.81;5058350;28;1059;-14
2023/03/02 00:26:40;;;;;;;;;;;;;;;27.47;24.52;101418.25;5043660;28;1110;-14
2023/03/02 00:29:05;;;;;;;;;;;;;;;27.27;24.71;101415.03;5038373;28;1207;-14
2023/03/02 00:31:31;;;;;;;;;;;;;;;27.60;24.21;101415.03;5053607;28;1218;-15
2023/03/02 00:33:57;;;;;;;;;;;;;;;27.81;24.14;101408.25;5058770;28;1058;-14
2023/03/02 00:36:22;;;;;;;;;;;;;;;28.14;23.73;101409.19;5058078;28;1133;-15
2023/03/02 00:38:48;;;;;;;;;;;;;;;27.56;24.42;101402.84;5056981;28;1083;-15
2023/03/02 00:41:14;;;;;;;;;;;;;;;27.30;24.89;101390.38;5073546;28;1969;-14
2023/03/02 00:43:40;;;;;;;;;;;;;;;27.48;24.45;101398.31;5058103;28;1174;-14
2023/03/02 00:46:12;;;;;;;;;;;;;;;27.42;24.22;101400.84;5058457;28;1171;-14
2023/03/02 00:48:37;;;;;;;;;;;;;;;27.03;24.85;101397.78;5058110;28;1101;-14
2023/03/02 00:51:04;;;;;;;;;;;;;;;26.93;25.51;101392.50;5058367;28;1147;-14
2023/03/02 00:53:29;;;;;;;;;;;;;;;26.85;25.19;101395.19;5057484;28;892;-15
2023/03/02 00:55:55;;;;;;;;;;;;;;;27.45;24.40;101400.50;5056967;28;1176;-14
2023/03/02 00:58:21;;;;;;;;;;;;;;;27.45;24.64;101387.84;5056759;28;1337;-15
2023/03/02 01:00:47;;;;;;;;;;;;;;;27.43;24.13;101386.31;5056853;28;1961;-14
2023/03/02 01:03:13;;;;;;;;;;;;;;;27.37;24.63;101374.34;5057264;28;1158;-15
2023/03/02 01:05:38;;;;;;;;;;;;;;;27.47;24.29;101372.31;5057805;28;1138;-14
2023/03/02 01:08:04;;;;;;;;;;;;;;;27.91;23.94;101374.78;5056861;28;1426;-14
2023/03/02 01:10:30;;;;;;;;;;;;;;;27.49;24.46;101367.56;5057912;28;1118;-14
2023/03/02 01:12:56;;;;;;;;;;;;;;;27.50;24.25;101365.69;5057723;28;1158;-14
2023/03/02 01:15:21;;;;;;;;;;;;;;;27.35;24.57;101374.50;5057946;28;1055;-15
2023/03/02 01:17:47;;;;;;;;;;;;;;;27.28;24.65;101365.38;5057501;28;1018;-14
2023/03/02 01:20:13;;;;;;;;;;;;;;;27.45;24.06;101382.44;5057488;28;1127;-15
2023/03/02 01:22:38;;;;;;;;;;;;;;;27.15;24.93;101376.69;5057713;28;1985;-14
2023/03/02 01:25:04;;;;;;;;;;;;;;;26.92;25.34;101374.63;5057356;28;1031;-14
2023/03/02 01:27:30;;;;;;;;;;;;;;;27.14;25.22;101367.75;5056464;28;1230;-15
2023/03/02 01:29:55;;;;;;;;;;;;;;;27.58;24.41;101370.25;5057306;28;1187;-15
2023/03/02 01:32:21;;;;;;;;;;;;;;;27.66;24.30;101364.00;5057732;28;1090;-15
2023/03/02 01:34:47;;;;;;;;;;;;;;;27.35;24.41;101361.00;5056975;28;1234;-14
2023/03/02 01:37:12;;;;;;;;;;;;;;;27.44;24.37;101359.13;5057508;28;1142;-14
2023/03/02 01:39:38;;;;;;;;;;;;;;;27.46;24.59;101367.06;5055200;28;1254;-15
2023/03/02 01:42:03;;;;;;;;;;;;;;;27.41;24.41;101369.44;5053820;28;1973;-14
2023/03/02 01:44:38;;;;;;;;;;;;;;;27.55;24.27;101367.88;5057296;28;1155;-15
2023/03/02 01:47:24;;;;;;;;;;;;;;;27.35;24.84;101369.09;5056164;28;1361;-14
2023/03/02 01:50:00;;;;;;;;;;;;;;;27.42;24.21;101368.41;5072812;28;1153;-15
2023/03/02 01:52:28;;;;;;;;;;;;;;;27.50;24.42;101373.81;5040760;28;1274;-15
2023/03/02 01:54:55;;;;;;;;;;;;;;;27.41;24.87;101369.44;5044474;28;1238;-15
2023/03/02 01:57:22;;;;;;;;;;;;;;;27.47;24.23;101371.44;5039345;28;1304;-15
2023/03/02 01:59:48;;;;;;;;;;;;;;;27.77;23.92;101365.53;5055826;28;1049;-14
2023/03/02 02:02:14;;;;;;;;;;;;;;;27.26;24.80;101389.84;5056002;28;1918;-15
2023/03/02 02:04:40;;;;;;;;;;;;;;;27.32;24.54;101377.56;5055766;28;1079;-14
2023/03/02 02:07:06;;;;;;;;;;;;;;;27.36;24.52;101373.47;5036380;28;1153;-15
2023/03/02 02:09:37;;;;;;;;;;;;;;;27.48;23.90;101375.84;5057359;28;1036;-14
2023/03/02 02:12:04;;;;;;;;;;;;;;;27.38;24.37;101371.47;5022115;28;1222;-15
2023/03/02 02:14:30;;;;;;;;;;;;;;;27.37;24.54;101372.47;5046140;28;1250;-15
2023/03/02 02:16:56;;;;;;;;;;;;;;;27.44;24.58;101361.84;5055213;28;1191;-15
2023/03/02 02:19:21;;;;;;;;;;;;;;;27.64;24.18;101372.28;5043942;28;941;-15
2023/03/02 02:21:47;;;;;;;;;;;;;;;27.48;24.33;101362.31;5054982;28;2069;-14
2023/03/02 02:24:17;;;;;;;;;;;;;;;27.46;23.97;101367.91;5056506;28;1063;-14
2023/03/02 02:26:43;;;;;;;;;;;;;;;27.09;25.03;101364.69;5056169;28;1163;-15
2023/03/02 02:29:13;;;;;;;;;;;;;;;27.07;25.20;101364.03;5056106;28;1122;-14
2023/03/02 02:31:40;;;;;;;;;;;;;;;27.37;24.47;101367.09;5055265;28;1206;-15
2023/03/02 02:34:09;;;;;;;;;;;;;;;27.48;24.56;101370.44;5045020;28;1371;-15
2023/03/02 02:36:36;;;;;;;;;;;;;;;27.35;24.37;101371.81;5051700;28;1122;-15
2023/03/02 02:39:06;;;;;;;;;;;;;;;27.20;24.69;101371.63;5039223;28;1168;-15
2023/03/02 02:41:36;;;;;;;;;;;;;;;27.37;24.58;101356.28;5055548;28;1918;-14
2023/03/02 02:44:02;;;;;;;;;;;;;;;27.48;24.15;101356.91;5039061;28;1415;-15
2023/03/02 02:46:28;;;;;;;;;;;;;;;27.31;24.47;101364.22;5055940;28;1177;-15
2023/03/02 02:48:54;;;;;;;;;;;;;;;27.45;24.23;101357.25;5055170;28;1480;-14
2023/03/02 02:51:22;;;;;;;;;;;;;;;27.53;24.24;101365.34;5054927;28;1070;-14
2023/03/02 02:54:03;;;;;;;;;;;;;;;27.73;24.19;101355.06;5063191;28;1076;-15
2023/03/02 02:56:35;;;;;;;;;;;;;;;27.57;23.90;101355.91;5034552;28;1113;-15
2023/03/02 02:59:22;;;;;;;;;;;;;;;27.56;24.37;101361.50;5071338;28;1245;-14
2023/03/02 03:01:48;;;;;;;;;;;;;;;26.94;25.23;101356.41;5071596;28;1909;-14
2023/03/02 03:04:17;;;;;;;;;;;;;;;26.69;25.55;101356.38;5037668;28;1064;-14
2023/03/02 03:06:52;;;;;;;;;;;;;;;27.07;24.86;101355.09;5055726;28;1246;-14
2023/03/02 03:09:18;;;;;;;;;;;;;;;27.17;24.77;101355.78;5071495;28;1269;-14
2023/03/02 03:11:47;;;;;;;;;;;;;;;27.14;24.83;101342.59;5054264;28;1195;-14
2023/03/02 03:14:14;;;;;;;;;;;;;;;27.15;24.59;101341.59;5054817;28;1127;-14
2023/03/02 03:16:43;;;;;;;;;;;;;;;27.35;24.53;101354.75;5054428;28;1191;-14
2023/03/02 03:19:28;;;;;;;;;;;;;;;27.29;24.16;101347.31;5054211;28;1156;-15
2023/03/02 03:21:55;;;;;;;;;;;;;;;27.39;24.54;101356.94;5054858;28;1926;-15
2023/03/02 03:24:23;;;;;;;;;;;;;;;27.46;24.10;101351.69;5054622;28;1410;-14
2023/03/02 03:26:50;;;;;;;;;;;;;;;27.41;24.10;101356.75;5054585;28;1166;-15
2023/03/02 03:29:16;;;;;;;;;;;;;;;27.47;24.06;101356.09;5054349;28;1368;-15
2023/03/02 03:31:42;;;;;;;;;;;;;;;27.37;24.13;101345.47;5053887;28;1284;-14
2023/03/02 03:34:10;;;;;;;;;;;;;;;27.40;23.95;101349.69;5054365;28;1197;-15
2023/03/02 03:36:36;;;;;;;;;;;;;;;27.53;24.27;101362.66;5054180;28;1225;-15
2023/03/02 03:39:03;;;;;;;;;;;;;;;27.24;24.70;101366.75;5054344;28;1165;-14
2023/03/02 03:41:29;;;;;;;;;;;;;;;27.41;24.54;101377.53;5055321;28;1980;-15
2023/03/02 03:43:55;;;;;;;;;;;;;;;27.86;23.66;101373.44;5045883;28;1194;-15
2023/03/02 03:46:21;;;;;;;;;;;;;;;27.75;24.00;101371.94;5054370;28;1158;-14
2023/03/02 03:48:46;;;;;;;;;;;;;;;27.34;24.54;101374.69;5054242;28;1222;-14
2023/03/02 03:51:12;;;;;;;;;;;;;;;27.39;24.16;101386.66;5055711;28;1071;-15
2023/03/02 03:53:38;;;;;;;;;;;;;;;27.50;23.88;101392.72;5054410;28;1360;-14
2023/03/02 03:56:05;;;;;;;;;;;;;;;27.58;24.20;101398.13;5051987;28;1234;-14
2023/03/02 03:58:30;;;;;;;;;;;;;;;27.69;24.02;101402.38;5055441;28;1131;-15
2023/03/02 04:00:56;;;;;;;;;;;;;;;27.93;23.40;101406.03;5055457;28;1902;-15
2023/03/02 04:03:22;;;;;;;;;;;;;;;27.78;23.71;101407.78;5057603;28;1146;-14
2023/03/02 04:05:48;;;;;;;;;;;;;;;27.54;24.14;101402.19;5058218;28;1312;-15
2023/03/02 04:08:14;;;;;;;;;;;;;;;27.39;23.88;101388.53;5057282;28;1362;-15
2023/03/02 04:10:39;;;;;;;;;;;;;;;27.29;24.16;101404.03;5058542;28;1190;-14
2023/03/02 04:13:05;;;;;;;;;;;;;;;27.97;23.50;101407.38;5074374;28;1149;-14
2023/03/02 04:15:31;;;;;;;;;;;;;;;28.40;23.16;101405.41;5057736;28;1587;-14
2023/03/02 04:17:58;;;;;;;;;;;;;;;28.69;22.62;101403.91;5058741;28;1123;-14
2023/03/02 04:20:24;;;;;;;;;;;;;;;27.88;23.18;101394.88;5059260;28;1967;-14
2023/03/02 04:22:52;;;;;;;;;;;;;;;27.66;23.45;101405.38;5058054;28;1140;-14
2023/03/02 04:25:19;;;;;;;;;;;;;;;27.85;23.38;101403.34;5073846;28;1291;-14
2023/03/02 04:27:45;;;;;;;;;;;;;;;26.44;25.53;101402.16;5058724;28;1198;-15
2023/03/02 04:30:11;;;;;;;;;;;;;;;26.35;25.61;101397.72;5039950;28;1223;-14
2023/03/02 04:32:37;;;;;;;;;;;;;;;27.56;23.97;101410.94;5054303;28;1162;-14
2023/03/02 04:35:03;;;;;;;;;;;;;;;27.70;23.93;101406.75;5041468;28;1909;-15
2023/03/02 04:37:28;;;;;;;;;;;;;;;27.54;23.67;101404.91;5073719;28;1183;-14
2023/03/02 04:39:54;;;;;;;;;;;;;;;27.51;23.44;101413.31;5056389;28;1163;-14
2023/03/02 04:42:20;;;;;;;;;;;;;;;27.90;23.39;101419.91;5056865;28;1902;-14
2023/03/02 04:44:46;;;;;;;;;;;;;;;28.00;23.05;101414.31;5058586;28;1078;-14
2023/03/02 04:47:11;;;;;;;;;;;;;;;25.24;20.21;101409.72;5058196;28;1075;-14
2023/03/02 04:49:37;;;;;;;;;;;;;;;24.00;21.42;101414.44;5056789;28;1130;-15
2023/03/02 04:52:03;;;;;;;;;;;;;;;23.07;22.56;101409.38;5058101;28;1047;-15
2023/03/02 04:54:28;;;;;;;;;;;;;;;21.83;24.10;101418.31;5049414;28;1153;-14
2023/03/02 04:56:54;;;;;;;;;;;;;;;21.60;24.72;101415.75;5050613;28;1230;-15
2023/03/02 04:59:21;;;;;;;;;;;;;;;25.41;22.68;101424.19;5058198;28;1144;-14
2023/03/02 05:01:46;;;;;;;;;;;;;;;26.46;21.87;101421.72;5058254;28;1980;-15
2023/03/02 05:04:12;;;;;;;;;;;;;;;26.62;21.85;101422.78;5057998;28;1206;-15
2023/03/02 05:06:38;;;;;;;;;;;;;;;26.99;21.77;101429.63;5057898;28;1460;-14
2023/03/02 05:09:03;;;;;;;;;;;;;;;27.45;21.49;101425.66;5057996;28;1090;-14
2023/03/02 05:11:29;;;;;;;;;;;;;;;27.14;21.99;101431.72;5057458;28;1086;-15
2023/03/02 05:13:55;;;;;;;;;;;;;;;26.87;22.44;101426.41;5057056;28;1103;-14
2023/03/02 05:16:21;;;;;;;;;;;;;;;26.79;22.88;101434.50;5056988;28;1099;-14
2023/03/02 05:18:47;;;;;;;;;;;;;;;26.70;22.81;101433.63;5057262;28;1043;-14
2023/03/02 05:21:13;;;;;;;;;;;;;;;26.80;22.84;101438.88;5057660;28;1959;-15
2023/03/02 05:23:39;;;;;;;;;;;;;;;26.73;23.09;101444.06;5057854;28;1143;-15
2023/03/02 05:26:05;;;;;;;;;;;;;;;27.01;22.68;101434.84;5057704;28;1110;-14
2023/03/02 05:28:30;;;;;;;;;;;;;;;26.97;22.76;101439.78;5057295;28;1027;-14
2023/03/02 05:30:56;;;;;;;;;;;;;;;27.10;22.67;101439.31;5057764;28;1143;-14
2023/03/02 05:33:21;;;;;;;;;;;;;;;26.88;22.74;101438.03;5057768;28;1186;-15
2023/03/02 05:35:47;;;;;;;;;;;;;;;26.81;23.21;101434.31;5057191;28;1131;-14
2023/03/02 05:38:13;;;;;;;;;;;;;;;27.09;22.75;101434.91;5055887;28;1107;-14
2023/03/02 05:40:38;;;;;;;;;;;;;;;27.47;22.34;101436.31;5057087;28;1971;-15
2023/03/02 05:43:04;;;;;;;;;;;;;;;27.09;22.97;101444.88;5056922;28;1043;-15
2023/03/02 05:45:30;;;;;;;;;;;;;;;27.47;22.50;101447.09;5057310;28;1203;-15
2023/03/02 05:47:56;;;;;;;;;;;;;;;27.46;22.39;101445.44;5057258;28;1047;-14
2023/03/02 05:50:21;;;;;;;;;;;;;;;26.74;23.30;101453.03;5057073;28;1122;-14
2023/03/02 05:52:47;;;;;;;;;;;;;;;26.71;23.72;101453.34;5057441;28;1145;-14
2023/03/02 05:55:13;;;;;;;;;;;;;;;26.96;23.10;101448.03;5052389;28;1210;-15
2023/03/02 05:57:39;;;;;;;;;;;;;;;27.35;22.67;101460.94;5053417;28;1075;-14
2023/03/02 06:00:05;;;;;;;;;;;;;;;27.30;22.68;101463.31;5056514;28;1166;-15
2023/03/02 06:02:38;;;;;;;;;;;;;;;27.26;22.87;101465.50;5036921;28;1985;-14
2023/03/02 06:05:04;;;;;;;;;;;;;;;26.81;23.49;101467.53;5048820;28;1072;-14
2023/03/02 06:07:30;;;;;;;;;;;;;;;26.80;23.70;101468.56;5056340;28;1083;-14
2023/03/02 06:09:56;;;;;;;;;;;;;;;27.05;23.72;101475.91;5057114;28;1117;-14
2023/03/02 06:12:21;;;;;;;;;;;;;;;27.31;22.84;101474.97;5056755;28;1122;-14
2023/03/02 06:14:47;;;;;;;;;;;;;;;27.31;23.00;101483.06;5043399;28;1231;-15
2023/03/02 06:17:12;;;;;;;;;;;;;;;27.02;23.75;101477.09;5040908;28;1259;-14
2023/03/02 06:19:38;;;;;;;;;;;;;;;26.82;23.99;101476.50;5048890;28;1167;-15
2023/03/02 06:22:03;;;;;;;;;;;;;;;27.19;23.22;101471.72;5036507;28;1969;-15
2023/03/02 06:24:29;;;;;;;;;;;;;;;27.50;23.04;101476.50;5036124;28;1124;-15
2023/03/02 06:26:55;;;;;;;;;;;;;;;27.52;22.55;101477.19;5040380;28;1226;-15
2023/03/02 06:29:20;;;;;;;;;;;;;;;27.12;23.56;101471.56;5056541;28;1090;-15
2023/03/02 06:31:46;;;;;;;;;;;;;;;26.88;23.91;101471.28;5046845;28;1171;-15
2023/03/02 06:34:12;;;;;;;;;;;;;;;27.09;23.77;101480.81;5036830;28;1028;-14
2023/03/02 06:36:38;;;;;;;;;;;;;;;27.37;23.22;101480.56;5052956;28;1080;-15
2023/03/02 06:39:04;;;;;;;;;;;;;;;27.46;23.20;101486.78;5056487;28;1143;-14
2023/03/02 06:41:32;;;;;;;;;;;;;;;27.17;23.63;101487.25;5056060;28;2048;-14
2023/03/02 06:43:58;;;;;;;;;;;;;;;26.80;24.34;101492.00;5055903;28;1139;-15
2023/03/02 06:46:24;;;;;;;;;;;;;;;27.03;24.08;101492.28;5056212;28;1078;-14
2023/03/02 06:48:49;;;;;;;;;;;;;;;27.37;23.24;101496.75;5056002;28;1063;-15
2023/03/02 06:51:16;;;;;;;;;;;;;;;27.54;23.03;101490.50;5055938;28;1163;-15
2023/03/02 06:53:42;;;;;;;;;;;;;;;27.48;23.12;101492.03;5054449;28;1219;-15
2023/03/02 06:56:07;;;;;;;;;;;;;;;26.72;24.21;101490.13;5045170;28;1278;-14
2023/03/02 06:58:33;;;;;;;;;;;;;;;26.73;24.11;101497.19;5056324;28;1119;-15
2023/03/02 07:00:59;;;;;;;;;;;;;;;27.29;23.66;101502.16;5038684;28;1918;-15
2023/03/02 07:03:24;;;;;;;;;;;;;;;27.45;23.47;101506.72;5055559;28;1305;-15
2023/03/02 07:05:51;;;;;;;;;;;;;;;27.14;23.41;101500.06;5055444;28;1199;-15
2023/03/02 07:08:16;;;;;;;;;;;;;;;27.14;23.60;101501.94;5046353;28;1238;-15
2023/03/02 07:10:42;;;;;;;;;;;;;;;26.85;24.42;101497.75;5035984;28;1176;-15
2023/03/02 07:13:07;;;;;;;;;;;;;;;27.21;24.14;101500.25;5036033;28;1174;-15
2023/03/02 07:15:33;;;;;;;;;;;;;;;27.64;23.02;101493.91;5035824;28;1131;-14
2023/03/02 07:17:58;;;;;;;;;;;;;;;27.57;22.97;101495.59;5036010;28;1234;-15
2023/03/02 07:20:24;;;;;;;;;;;;;;;26.97;23.82;101495.63;5038281;28;1180;-15
2023/03/02 07:22:50;;;;;;;;;;;;;;;26.71;24.21;101488.44;5055936;28;1979;-15
2023/03/02 07:25:15;;;;;;;;;;;;;;;27.05;24.04;101489.41;5055859;28;1138;-14
2023/03/02 07:27:41;;;;;;;;;;;;;;;27.23;23.59;101492.84;5055649;28;1135;-14
2023/03/02 07:30:07;;;;;;;;;;;;;;;27.35;23.21;101495.22;5055558;28;1123;-15
2023/03/02 07:32:32;;;;;;;;;;;;;;;27.06;23.69;101485.72;5055277;28;1024;-15
2023/03/02 07:34:58;;;;;;;;;;;;;;;26.72;24.00;101487.44;5056131;28;1050;-15
2023/03/02 07:37:23;;;;;;;;;;;;;;;27.19;23.62;101486.09;5056168;28;1218;-15
2023/03/02 07:39:49;;;;;;;;;;;;;;;27.60;22.89;101496.09;5059425;28;1135;-15
2023/03/02 07:42:15;;;;;;;;;;;;;;;27.51;22.82;101494.38;5059658;28;1984;-14
2023/03/02 07:44:44;;;;;;;;;;;;;;;27.41;23.00;101491.03;5052360;28;1320;-15
2023/03/02 07:47:09;;;;;;;;;;;;;;;26.86;23.78;101488.66;5059677;28;1050;-14
2023/03/02 07:49:35;;;;;;;;;;;;;;;27.30;23.15;101482.22;5059129;28;1182;-14
2023/03/02 07:52:01;;;;;;;;;;;;;;;27.56;22.84;101492.03;5059475;28;1066;-15
2023/03/02 07:54:29;;;;;;;;;;;;;;;27.47;23.11;101495.75;5059791;28;1079;-14
2023/03/02 07:56:57;;;;;;;;;;;;;;;27.65;22.50;101484.78;5059095;28;1226;-14
2023/03/02 07:59:23;;;;;;;;;;;;;;;26.81;23.87;101480.22;5059385;28;1054;-15
2023/03/02 08:01:48;;;;;;;;;;;;;;;26.97;23.74;101487.50;5059065;28;1972;-14
2023/03/02 08:04:14;;;;;;;;;;;;;;;27.31;23.18;101488.47;5059052;28;1063;-14
2023/03/02 08:06:39;;;;;;;;;;;;;;;27.29;23.39;101482.38;5058037;28;1230;-14
2023/03/02 08:09:05;;;;;;;;;;;;;;;27.47;22.89;101484.94;5047625;28;1153;-15
2023/03/02 08:11:30;;;;;;;;;;;;;;;26.87;23.59;101484.94;5043572;28;1132;-15
2023/03/02 08:14:00;;;;;;;;;;;;;;;26.93;23.82;101489.69;5058984;28;1023;-15
2023/03/02 08:16:25;;;;;;;;;;;;;;;27.02;23.40;101487.91;5043297;28;1223;-14
2023/03/02 08:18:51;;;;;;;;;;;;;;;27.19;23.57;101490.63;5038662;28;1218;-14
2023/03/02 08:21:18;;;;;;;;;;;;;;;27.58;22.89;101497.25;5039307;28;1898;-15
2023/03/02 08:23:43;;;;;;;;;;;;;;;26.94;23.52;101491.41;5056705;28;1084;-14
2023/03/02 08:26:09;;;;;;;;;;;;;;;26.90;23.54;101495.41;5058580;28;1079;-14
2023/03/02 08:28:34;;;;;;;;;;;;;;;27.22;23.58;101503.81;5058681;28;1042;-15
2023/03/02 08:31:00;;;;;;;;;;;;;;;27.30;23.15;101497.56;5058770;28;1114;-15
2023/03/02 08:33:26;;;;;;;;;;;;;;;27.48;22.96;101495.56;5058142;28;1182;-15
2023/03/02 08:35:55;;;;;;;;;;;;;;;27.16;23.38;101490.97;5058857;28;1162;-14
2023/03/02 08:38:20;;;;;;;;;;;;;;;27.00;23.80;101493.44;5058224;28;1083;-14
2023/03/02 08:40:46;;;;;;;;;;;;;;;27.31;23.12;101493.88;5058346;28;1969;-15
2023/03/02 08:43:11;;;;;;;;;;;;;;;27.11;23.66;101488.78;5058142;28;1135;-15
2023/03/02 08:45:37;;;;;;;;;;;;;;;27.05;22.38;101492.97;5057780;28;1472;-15
2023/03/02 08:48:02;;;;;;;;;;;;;;;27.33;22.30;101494.53;5057030;28;1165;-15
2023/03/02 08:50:28;;;;;;;;;;;;;;;26.76;23.30;101492.31;5058275;28;1091;-15
2023/03/02 08:52:53;;;;;;;;;;;;;;;26.86;23.10;101477.88;5058321;28;1043;-15
2023/03/02 08:55:19;;;;;;;;;;;;;;;26.90;23.46;101490.88;5058363;28;1122;-15
2023/03/02 08:57:45;;;;;;;;;;;;;;;27.21;22.71;101489.44;5047263;28;1109;-15
2023/03/02 09:00:13;;;;;;;;;;;;;;;27.55;22.27;101495.75;5057785;28;1137;-15
2023/03/02 09:02:39;;;;;;;;;;;;;;;27.05;23.05;101490.25;5057984;28;1914;-15
2023/03/02 09:05:05;;;;;;;;;;;;;;;27.08;23.02;101478.28;5058209;28;1059;-15
2023/03/02 09:07:31;;;;;;;;;;;;;;;27.25;22.65;101488.13;5058198;28;1155;-15
2023/03/02 09:09:56;;;;;;;;;;;;;;;27.37;22.65;101493.19;5056988;28;1395;-15
2023/03/02 09:12:22;;;;;;;;;;;;;;;27.57;22.49;101488.34;5048804;28;1628;-15
2023/03/02 09:14:47;;;;;;;;;;;;;;;26.87;23.65;101485.81;5057278;28;1282;-14
2023/03/02 09:17:14;;;;;;;;;;;;;;;26.73;24.22;101484.56;5057657;28;1250;-15
2023/03/02 09:19:40;;;;;;;;;;;;;;;26.97;23.62;101479.41;5057738;28;1170;-15
2023/03/02 09:22:09;;;;;;;;;;;;;;;27.32;23.50;101476.66;5042041;28;1914;-15
2023/03/02 09:24:34;;;;;;;;;;;;;;;27.31;23.38;101480.38;5041545;28;1106;-15
2023/03/02 09:27:00;;;;;;;;;;;;;;;27.44;23.51;101477.16;5057954;28;1115;-15
2023/03/02 09:29:26;;;;;;;;;;;;;;;26.94;23.94;101466.25;5057657;28;1198;-15
2023/03/02 09:31:51;;;;;;;;;;;;;;;27.05;24.45;101474.06;5073455;28;1138;-15
2023/03/02 09:34:17;;;;;;;;;;;;;;;27.34;24.05;101472.75;5057168;28;1137;-15
2023/03/02 09:36:42;;;;;;;;;;;;;;;27.39;23.29;101467.69;5057712;28;1229;-15
2023/03/02 09:39:11;;;;;;;;;;;;;;;27.84;23.48;101467.38;5057378;28;1082;-15
2023/03/02 09:41:55;;;;;;;;;;;;;;;27.32;24.30;101465.84;5057041;28;1898;-15
2023/03/02 09:44:27;;;;;;;;;;;;;;;26.71;25.35;101461.44;5057340;28;1175;-15
2023/03/02 09:46:58;;;;;;;;;;;;;;;26.92;25.00;101463.72;5044202;28;1040;-15
2023/03/02 09:49:36;;;;;;;;;;;;;;;27.26;23.86;101454.69;5056031;28;1142;-14
2023/03/02 09:52:07;;;;;;;;;;;;;;;27.71;23.46;101440.88;5056986;28;1059;-14
2023/03/02 09:54:33;;;;;;;;;;;;;;;27.76;23.19;101451.16;5048595;28;1514;-15
2023/03/02 09:56:59;;;;;;;;;;;;;;;26.78;25.11;101451.69;5052244;28;1219;-15
2023/03/02 09:59:27;;;;;;;;;;;;;;;26.58;25.22;101446.53;5056532;28;1198;-15
2023/03/02 10:02:03;;;;;;;;;;;;;;;26.44;25.56;101439.06;5056445;28;1921;-15
2023/03/02 10:04:37;;;;;;;;;;;;;;;27.02;24.74;101447.41;5055507;28;995;-15
2023/03/02 10:07:12;;;;;;;;;;;;;;;27.60;23.70;101436.63;5055836;28;1064;-15
2023/03/02 10:09:38;;;;;;;;;;;;;;;27.82;23.30;101439.69;5056448;28;1059;-15
2023/03/02 10:12:07;;;;;;;;;;;;;;;27.07;24.47;101439.66;5056354;28;1230;-15
2023/03/02 10:14:38;;;;;;;;;;;;;;;26.91;24.88;101429.59;5056929;28;1195;-15
2023/03/02 10:17:08;;;;;;;;;;;;;;;27.47;23.93;101431.75;5055107;28;1219;-15
2023/03/02 10:19:42;;;;;;;;;;;;;;;27.69;23.39;101429.41;5055524;28;1165;-15
2023/03/02 10:22:23;;;;;;;;;;;;;;;27.10;24.60;101422.25;5043391;28;1993;-15
2023/03/02 10:25:09;;;;;;;;;;;;;;;26.48;25.55;101425.09;5055206;28;1151;-15
2023/03/02 10:27:38;;;;;;;;;;;;;;;26.91;25.04;101429.59;5030378;28;1214;-15
2023/03/02 10:30:06;;;;;;;;;;;;;;;27.26;24.20;101426.81;5056567;28;1206;-15
2023/03/02 10:32:34;;;;;;;;;;;;;;;27.35;23.77;101428.53;5056148;28;964;-15
2023/03/02 10:35:00;;;;;;;;;;;;;;;27.33;23.79;101424.28;5054782;28;1406;-15
2023/03/02 10:37:29;;;;;;;;;;;;;;;26.96;24.69;101421.03;5055550;28;1263;-15
2023/03/02 10:39:55;;;;;;;;;;;;;;;27.03;24.74;101422.06;5056169;28;1031;-15
2023/03/02 10:42:30;;;;;;;;;;;;;;;27.28;24.08;101405.06;5042758;28;1975;-15
2023/03/02 10:44:56;;;;;;;;;;;;;;;27.70;23.64;101420.28;5054937;28;1172;-15
2023/03/02 10:47:26;;;;;;;;;;;;;;;27.26;24.62;101405.22;5055159;28;1242;-15
2023/03/02 10:49:52;;;;;;;;;;;;;;;26.74;25.23;101412.53;5055693;28;1463;-15
2023/03/02 10:52:19;;;;;;;;;;;;;;;26.89;25.33;101410.06;5055941;28;1130;-15
2023/03/02 10:54:46;;;;;;;;;;;;;;;27.58;24.05;101408.06;5056092;28;1067;-14
2023/03/02 10:57:25;;;;;;;;;;;;;;;27.76;23.71;101399.81;5055936;28;1142;-15
2023/03/02 10:59:50;;;;;;;;;;;;;;;26.51;26.05;101396.94;5054591;28;1171;-15
2023/03/02 11:02:23;;;;;;;;;;;;;;;26.65;25.47;101371.19;5056410;28;1918;-14
2023/03/02 11:04:52;;;;;;;;;;;;;;;26.89;25.48;101388.44;5056261;28;1031;-15
2023/03/02 11:07:18;;;;;;;;;;;;;;;27.30;24.73;101387.66;5056221;28;1063;-15
2023/03/02 11:09:57;;;;;;;;;;;;;;;27.67;24.32;101388.16;5055234;28;1118;-15
2023/03/02 11:12:22;;;;;;;;;;;;;;;27.56;24.15;101383.09;5054967;28;1270;-15
2023/03/02 11:14:48;;;;;;;;;;;;;;;27.48;24.15;101382.09;5060142;28;1097;-15
2023/03/02 11:17:40;;;;;;;;;;;;;;;27.66;24.17;101370.22;5059871;28;1237;-15
2023/03/02 11:20:07;;;;;;;;;;;;;;;27.50;24.24;101373.81;5057819;28;1052;-14
2023/03/02 11:22:36;;;;;;;;;;;;;;;27.35;24.84;101369.09;5050418;28;1971;-15
2023/03/02 11:25:02;;;;;;;;;;;;;;;27.42;24.59;101363.88;5059523;28;1147;-15
2023/03/02 11:27:28;;;;;;;;;;;;;;;27.31;24.68;101366.91;5058822;28;1187;-14
2023/03/02 11:29:58;;;;;;;;;;;;;;;26.25;26.13;101362.75;5058794;28;1056;-15
2023/03/02 11:32:33;;;;;;;;;;;;;;;26.57;25.94;101352.28;5058565;28;1169;-15
2023/03/02 11:35:03;;;;;;;;;;;;;;;27.11;24.82;101364.56;5059588;28;877;-15
2023/03/02 11:37:29;;;;;;;;;;;;;;;27.30;24.47;101368.75;5058325;28;1225;-14
2023/03/02 11:40:08;;;;;;;;;;;;;;;27.41;23.78;101358.63;5060058;28;1058;-14
2023/03/02 11:42:41;;;;;;;;;;;;;;;26.24;26.32;101361.91;5046588;28;1976;-15
2023/03/02 11:45:12;;;;;;;;;;;;;;;26.23;26.31;101364.75;5058015;28;1139;-15
2023/03/02 11:47:39;;;;;;;;;;;;;;;26.49;25.81;101364.72;5059408;28;1038;-15
2023/03/02 11:50:04;;;;;;;;;;;;;;;26.92;25.11;101363.81;5058176;28;1200;-15
2023/03/02 11:52:31;;;;;;;;;;;;;;;27.44;24.26;101359.13;5058357;28;1060;-15
2023/03/02 11:54:57;;;;;;;;;;;;;;;27.26;24.97;101353.88;5057621;28;1155;-15
2023/03/02 11:57:30;;;;;;;;;;;;;;;26.84;25.26;101355.72;5059377;28;1078;-15
2023/03/02 11:59:57;;;;;;;;;;;;;;;26.89;25.70;101354.19;5056458;28;1016;-15
2023/03/02 12:02:22;;;;;;;;;;;;;;;27.18;24.63;101346.66;5059334;28;1910;-15
2023/03/02 12:04:48;;;;;;;;;;;;;;;27.46;24.29;101335.47;5057795;28;1112;-15
2023/03/02 12:07:21;;;;;;;;;;;;;;;26.67;25.67;101342.19;5059642;28;1157;-15
2023/03/02 12:10:06;;;;;;;;;;;;;;;26.55;25.80;101352.44;5058863;28;1162;-14
2023/03/02 12:12:39;;;;;;;;;;;;;;;26.88;25.47;101346.25;5059089;28;1082;-15
2023/03/02 12:15:24;;;;;;;;;;;;;;;27.02;25.11;101347.50;5059449;28;1082;-15
2023/03/02 12:17:50;;;;;;;;;;;;;;;27.29;24.65;101344.63;5058676;28;1055;-15
2023/03/02 12:20:19;;;;;;;;;;;;;;;27.25;24.81;101339.56;5059108;28;1179;-15
2023/03/02 12:22:44;;;;;;;;;;;;;;;27.22;25.49;101337.22;5058377;28;1962;-14
2023/03/02 12:25:18;;;;;;;;;;;;;;;27.33;24.65;101340.56;5058308;28;1059;-15
2023/03/02 12:27:45;;;;;;;;;;;;;;;27.70;24.15;101344.59;5058463;28;1171;-15
2023/03/02 12:30:11;;;;;;;;;;;;;;;27.10;25.13;101352.03;5057379;28;1250;-15
2023/03/02 12:32:36;;;;;;;;;;;;;;;27.80;24.60;101351.66;5058703;28;1178;-15
2023/03/02 12:35:02;;;;;;;;;;;;;;;27.85;23.96;101358.25;5058233;28;1159;-14
2023/03/02 12:37:32;;;;;;;;;;;;;;;27.81;24.34;101353.34;5058562;28;1157;-15
2023/03/02 12:40:07;;;;;;;;;;;;;;;26.61;26.47;101349.06;5057421;28;1067;-15
2023/03/02 12:42:51;;;;;;;;;;;;;;;26.34;26.90;101345.63;5058466;28;1975;-15
2023/03/02 12:45:23;;;;;;;;;;;;;;;26.38;27.01;101349.69;5058435;28;1230;-15
2023/03/02 12:47:50;;;;;;;;;;;;;;;26.85;26.95;101354.69;5056705;28;981;-14
2023/03/02 12:50:23;;;;;;;;;;;;;;;27.10;25.73;101347.50;5058427;28;1148;-15